createdAt,value
2022-11-16T00:00:31.331Z,11.38
2022-11-16T00:01:31.411Z,11.41
2022-11-16T00:02:31.551Z,11.41
2022-11-16T00:03:31.565Z,11.38
2022-11-16T00:04:31.655Z,11.39
2022-11-16T00:05:31.732Z,11.38
2022-11-16T00:06:31.826Z,11.39
2022-11-16T00:07:32.002Z,11.42
2022-11-16T00:08:32.351Z,11.42
2022-11-16T00:09:32.069Z,11.42
2022-11-16T00:10:32.176Z,11.45
2022-11-16T00:11:32.254Z,11.44
2022-11-16T00:12:32.377Z,11.42
2022-11-16T00:13:32.441Z,11.42
2022-11-16T00:14:32.533Z,11.42
2022-11-16T00:15:32.609Z,11.41
2022-11-16T00:16:32.681Z,11.42
2022-11-16T00:17:32.807Z,11.41
2022-11-16T00:18:33.245Z,11.41
2022-11-16T00:19:32.946Z,11.39
2022-11-16T00:20:33.018Z,11.39
2022-11-16T00:21:33.094Z,11.39
2022-11-16T00:22:33.214Z,11.36
2022-11-16T00:23:33.249Z,11.39
2022-11-16T00:24:33.352Z,11.42
2022-11-16T00:25:33.425Z,11.42
2022-11-16T00:26:33.535Z,11.42
2022-11-16T00:27:33.627Z,11.38
2022-11-16T00:28:34.122Z,11.39
2022-11-16T00:29:33.772Z,11.41
2022-11-16T00:30:33.879Z,11.44
2022-11-16T00:31:33.957Z,11.45
2022-11-16T00:32:34.091Z,11.44
2022-11-16T00:33:34.117Z,11.39
2022-11-16T00:34:34.227Z,11.39
2022-11-16T00:35:34.309Z,11.39
2022-11-16T00:36:34.380Z,11.42
2022-11-16T00:37:34.490Z,11.41
2022-11-16T00:38:34.986Z,11.39
2022-11-16T00:39:34.611Z,11.39
2022-11-16T00:40:34.679Z,11.35
2022-11-16T00:41:34.761Z,11.35
2022-11-16T00:42:34.856Z,11.38
2022-11-16T00:43:34.907Z,11.36
2022-11-16T00:44:35.002Z,11.36
2022-11-16T00:45:35.081Z,11.35
2022-11-16T00:46:35.193Z,11.35
2022-11-16T00:47:35.279Z,11.35
2022-11-16T00:48:35.720Z,11.38
2022-11-16T00:49:35.438Z,11.38
2022-11-16T00:50:35.532Z,11.39
2022-11-16T00:51:35.613Z,11.39
2022-11-16T00:52:35.718Z,11.41
2022-11-16T00:53:35.759Z,11.41
2022-11-16T00:54:35.836Z,11.38
2022-11-16T00:55:35.908Z,11.36
2022-11-16T00:56:36.001Z,11.36
2022-11-16T00:57:36.110Z,11.36
2022-11-16T00:58:36.404Z,11.36
2022-11-16T00:59:36.237Z,11.35
2022-11-16T01:00:36.342Z,11.33
2022-11-16T01:01:36.519Z,11.33
2022-11-16T01:02:36.508Z,11.33
2022-11-16T01:03:36.548Z,11.31
2022-11-16T01:04:36.626Z,11.35
2022-11-16T01:05:36.702Z,11.36
2022-11-16T01:06:36.772Z,11.39
2022-11-16T01:07:36.918Z,11.41
2022-11-16T01:08:37.158Z,11.42
2022-11-16T01:09:37.007Z,11.44
2022-11-16T01:10:37.107Z,11.41
2022-11-16T01:11:37.188Z,11.41
2022-11-16T01:12:37.293Z,11.41
2022-11-16T01:13:37.335Z,11.41
2022-11-16T01:14:37.441Z,11.44
2022-11-16T01:15:37.520Z,11.39
2022-11-16T01:16:37.619Z,11.38
2022-11-16T01:17:37.715Z,11.39
2022-11-16T01:18:37.766Z,11.38
2022-11-16T01:19:37.827Z,11.39
2022-11-16T01:20:37.922Z,11.39
2022-11-16T01:21:37.979Z,11.39
2022-11-16T01:22:38.079Z,11.44
2022-11-16T01:23:38.119Z,11.44
2022-11-16T01:24:38.228Z,11.44
2022-11-16T01:25:38.279Z,11.42
2022-11-16T01:26:38.391Z,11.41
2022-11-16T01:27:38.479Z,11.38
2022-11-16T01:28:38.551Z,11.41
2022-11-16T01:29:38.621Z,11.36
2022-11-16T01:30:38.731Z,11.36
2022-11-16T01:31:38.805Z,11.39
2022-11-16T01:32:38.927Z,11.39
2022-11-16T01:33:38.989Z,11.39
2022-11-16T01:34:39.092Z,11.39
2022-11-16T01:35:39.132Z,11.39
2022-11-16T01:36:39.238Z,11.41
2022-11-16T01:37:39.327Z,11.42
2022-11-16T01:38:39.403Z,11.42
2022-11-16T01:39:39.479Z,11.44
2022-11-16T01:40:39.590Z,11.46
2022-11-16T01:41:39.663Z,11.48
2022-11-16T01:42:39.778Z,11.46
2022-11-16T01:43:39.842Z,11.46
2022-11-16T01:44:39.931Z,11.46
2022-11-16T01:45:40.011Z,11.48
2022-11-16T01:46:40.083Z,11.45
2022-11-16T01:47:40.176Z,11.46
2022-11-16T01:48:40.320Z,11.46
2022-11-16T01:49:40.324Z,11.44
2022-11-16T01:50:40.428Z,11.49
2022-11-16T01:51:40.509Z,11.45
2022-11-16T01:52:40.646Z,11.45
2022-11-16T01:53:40.686Z,11.51
2022-11-16T01:54:40.779Z,11.51
2022-11-16T01:55:40.859Z,11.53
2022-11-16T01:56:40.953Z,11.54
2022-11-16T01:57:41.070Z,11.56
2022-11-16T01:58:41.144Z,11.53
2022-11-16T01:59:41.231Z,11.54
2022-11-16T02:00:41.380Z,11.53
2022-11-16T02:01:41.439Z,11.51
2022-11-16T02:02:41.514Z,11.54
2022-11-16T02:03:41.555Z,11.54
2022-11-16T02:04:41.626Z,11.54
2022-11-16T02:05:41.704Z,11.51
2022-11-16T02:06:41.795Z,11.48
2022-11-16T02:07:41.896Z,11.46
2022-11-16T02:08:41.966Z,11.46
2022-11-16T02:09:42.048Z,11.48
2022-11-16T02:10:42.148Z,11.51
2022-11-16T02:11:42.232Z,11.49
2022-11-16T02:12:42.318Z,11.51
2022-11-16T02:13:42.358Z,11.53
2022-11-16T02:14:42.457Z,11.49
2022-11-16T02:15:42.538Z,11.48
2022-11-16T02:16:42.634Z,11.46
2022-11-16T02:17:42.759Z,11.48
2022-11-16T02:18:42.793Z,11.46
2022-11-16T02:19:42.871Z,11.48
2022-11-16T02:20:42.959Z,11.49
2022-11-16T02:21:43.040Z,11.51
2022-11-16T02:22:43.119Z,11.51
2022-11-16T02:23:43.198Z,11.51
2022-11-16T02:24:43.309Z,11.51
2022-11-16T02:25:43.385Z,11.51
2022-11-16T02:26:43.520Z,11.49
2022-11-16T02:27:43.593Z,11.48
2022-11-16T02:28:43.664Z,11.51
2022-11-16T02:29:43.743Z,11.51
2022-11-16T02:30:43.817Z,11.49
2022-11-16T02:31:43.928Z,11.49
2022-11-16T02:32:44.025Z,11.48
2022-11-16T02:33:44.098Z,11.45
2022-11-16T02:34:44.174Z,11.42
2022-11-16T02:35:44.241Z,11.42
2022-11-16T02:36:44.322Z,11.41
2022-11-16T02:37:44.416Z,11.42
2022-11-16T02:38:44.455Z,11.42
2022-11-16T02:39:44.561Z,11.41
2022-11-16T02:40:44.628Z,11.44
2022-11-16T02:41:44.700Z,11.44
2022-11-16T02:42:44.801Z,11.42
2022-11-16T02:43:44.872Z,11.44
2022-11-16T02:44:44.949Z,11.45
2022-11-16T02:45:45.043Z,11.45
2022-11-16T02:46:45.121Z,11.44
2022-11-16T02:47:45.214Z,11.45
2022-11-16T02:48:45.255Z,11.45
2022-11-16T02:49:45.345Z,11.45
2022-11-16T02:50:45.416Z,11.39
2022-11-16T02:51:45.522Z,11.39
2022-11-16T02:52:45.627Z,11.39
2022-11-16T02:53:45.674Z,11.41
2022-11-16T02:54:45.752Z,11.41
2022-11-16T02:55:45.860Z,11.42
2022-11-16T02:56:45.939Z,11.39
2022-11-16T02:57:46.060Z,11.36
2022-11-16T02:58:46.119Z,11.36
2022-11-16T02:59:46.192Z,11.39
2022-11-16T03:00:46.327Z,11.36
2022-11-16T03:01:46.350Z,11.39
2022-11-16T03:02:46.444Z,11.38
2022-11-16T03:03:46.504Z,11.42
2022-11-16T03:04:46.590Z,11.41
2022-11-16T03:05:46.694Z,11.39
2022-11-16T03:06:46.908Z,11.42
2022-11-16T03:07:46.865Z,11.45
2022-11-16T03:08:46.924Z,11.48
2022-11-16T03:09:47.014Z,11.48
2022-11-16T03:10:47.096Z,11.45
2022-11-16T03:11:47.163Z,11.44
2022-11-16T03:12:47.252Z,11.45
2022-11-16T03:13:47.326Z,11.44
2022-11-16T03:14:47.405Z,11.44
2022-11-16T03:15:47.475Z,11.44
2022-11-16T03:16:47.555Z,11.44
2022-11-16T03:17:47.662Z,11.45
2022-11-16T03:18:47.703Z,11.44
2022-11-16T03:19:47.775Z,11.44
2022-11-16T03:20:47.849Z,11.44
2022-11-16T03:21:47.973Z,11.42
2022-11-16T03:22:48.032Z,11.41
2022-11-16T03:23:48.106Z,11.44
2022-11-16T03:24:48.178Z,11.45
2022-11-16T03:25:48.282Z,11.46
2022-11-16T03:26:48.358Z,11.46
2022-11-16T03:27:48.481Z,11.49
2022-11-16T03:28:48.537Z,11.48
2022-11-16T03:29:48.641Z,11.48
2022-11-16T03:30:48.720Z,11.46
2022-11-16T03:31:48.790Z,11.45
2022-11-16T03:32:48.884Z,11.45
2022-11-16T03:33:48.953Z,11.44
2022-11-16T03:34:49.031Z,11.44
2022-11-16T03:35:49.116Z,11.41
2022-11-16T03:36:49.177Z,11.44
2022-11-16T03:37:49.293Z,11.45
2022-11-16T03:38:49.367Z,11.45
2022-11-16T03:39:49.473Z,11.44
2022-11-16T03:40:49.546Z,11.38
2022-11-16T03:41:49.665Z,11.35
2022-11-16T03:42:49.730Z,11.30
2022-11-16T03:43:49.798Z,11.30
2022-11-16T03:44:49.859Z,11.30
2022-11-16T03:45:49.954Z,11.30
2022-11-16T03:46:50.032Z,11.30
2022-11-16T03:47:50.153Z,11.33
2022-11-16T03:48:50.231Z,11.33
2022-11-16T03:49:50.339Z,11.35
2022-11-16T03:50:50.427Z,11.35
2022-11-16T03:51:50.537Z,11.33
2022-11-16T03:52:50.636Z,11.33
2022-11-16T03:53:50.721Z,11.38
2022-11-16T03:54:50.804Z,11.42
2022-11-16T03:55:50.871Z,11.45
2022-11-16T03:56:50.952Z,11.45
2022-11-16T03:57:51.036Z,11.44
2022-11-16T03:58:51.084Z,11.44
2022-11-16T03:59:51.180Z,11.42
2022-11-16T04:00:51.339Z,11.44
2022-11-16T04:01:51.357Z,11.45
2022-11-16T04:02:51.450Z,11.45
2022-11-16T04:03:51.526Z,11.44
2022-11-16T04:04:51.606Z,11.44
2022-11-16T04:05:51.715Z,11.48
2022-11-16T04:06:51.818Z,11.45
2022-11-16T04:07:51.898Z,11.48
2022-11-16T04:08:51.939Z,11.48
2022-11-16T04:09:52.022Z,11.46
2022-11-16T04:10:52.100Z,11.46
2022-11-16T04:11:52.208Z,11.48
2022-11-16T04:12:52.306Z,11.48
2022-11-16T04:13:52.376Z,11.46
2022-11-16T04:14:52.460Z,11.44
2022-11-16T04:15:52.565Z,11.42
2022-11-16T04:16:52.647Z,11.45
2022-11-16T04:17:52.737Z,11.46
2022-11-16T04:18:52.783Z,11.46
2022-11-16T04:19:57.762Z,11.46
2022-11-16T04:20:52.944Z,11.46
2022-11-16T04:21:53.032Z,11.44
2022-11-16T04:22:53.125Z,11.41
2022-11-16T04:23:53.198Z,11.44
2022-11-16T04:24:53.262Z,11.45
2022-11-16T04:25:53.379Z,11.46
2022-11-16T04:26:53.432Z,11.46
2022-11-16T04:27:53.548Z,11.46
2022-11-16T04:28:53.592Z,11.45
2022-11-16T04:29:53.658Z,11.46
2022-11-16T04:30:53.743Z,11.48
2022-11-16T04:31:53.812Z,11.48
2022-11-16T04:32:53.906Z,11.48
2022-11-16T04:33:53.981Z,11.48
2022-11-16T04:34:54.061Z,11.48
2022-11-16T04:35:54.169Z,11.45
2022-11-16T04:36:54.226Z,11.46
2022-11-16T04:37:54.357Z,11.48
2022-11-16T04:38:54.397Z,11.49
2022-11-16T04:39:54.504Z,11.51
2022-11-16T04:40:54.584Z,11.49
2022-11-16T04:41:54.675Z,11.48
2022-11-16T04:42:54.765Z,11.45
2022-11-16T04:43:54.856Z,11.42
2022-11-16T04:44:54.936Z,11.36
2022-11-16T04:45:55.007Z,11.35
2022-11-16T04:46:55.070Z,11.30
2022-11-16T04:47:55.155Z,11.26
2022-11-16T04:48:55.196Z,11.24
2022-11-16T04:49:55.315Z,11.26
2022-11-16T04:50:55.383Z,11.27
2022-11-16T04:51:55.473Z,11.24
2022-11-16T04:52:55.576Z,11.21
2022-11-16T04:53:55.624Z,11.21
2022-11-16T04:54:55.702Z,11.23
2022-11-16T04:56:00.624Z,11.21
2022-11-16T04:56:55.900Z,11.17
2022-11-16T04:57:55.981Z,11.12
2022-11-16T04:58:56.023Z,11.12
2022-11-16T04:59:56.093Z,11.12
2022-11-16T05:00:56.229Z,11.13
2022-11-16T05:01:56.306Z,11.13
2022-11-16T05:03:01.069Z,11.11
2022-11-16T05:03:56.474Z,11.13
2022-11-16T05:04:56.542Z,11.12
2022-11-16T05:05:56.646Z,11.12
2022-11-16T05:06:56.738Z,11.16
2022-11-16T05:07:56.817Z,11.13
2022-11-16T05:08:56.856Z,11.11
2022-11-16T05:09:56.966Z,11.08
2022-11-16T05:10:57.050Z,11.09
2022-11-16T05:11:57.119Z,11.09
2022-11-16T05:12:57.213Z,11.05
2022-11-16T05:13:57.287Z,11.05
2022-11-16T05:14:57.370Z,11.05
2022-11-16T05:15:57.458Z,11.06
2022-11-16T05:16:57.539Z,11.09
2022-11-16T05:17:57.643Z,11.13
2022-11-16T05:18:57.696Z,11.17
2022-11-16T05:19:57.761Z,11.19
2022-11-16T05:20:57.841Z,11.20
2022-11-16T05:21:57.944Z,11.23
2022-11-16T05:22:58.050Z,11.27
2022-11-16T05:23:58.126Z,11.31
2022-11-16T05:24:58.203Z,11.33
2022-11-16T05:25:58.293Z,11.31
2022-11-16T05:26:58.372Z,11.35
2022-11-16T05:27:58.491Z,11.33
2022-11-16T05:28:58.534Z,11.33
2022-11-16T05:29:58.603Z,11.36
2022-11-16T05:30:58.699Z,11.36
2022-11-16T05:31:58.762Z,11.38
2022-11-16T05:32:58.852Z,11.36
2022-11-16T05:33:58.936Z,11.35
2022-11-16T05:34:58.997Z,11.33
2022-11-16T05:35:59.117Z,11.28
2022-11-16T05:36:59.214Z,11.24
2022-11-16T05:37:59.280Z,11.21
2022-11-16T05:38:59.339Z,11.13
2022-11-16T05:39:59.450Z,11.09
2022-11-16T05:40:59.527Z,11.05
2022-11-16T05:41:59.641Z,11.01
2022-11-16T05:42:59.721Z,10.94
2022-11-16T05:43:59.821Z,10.90
2022-11-16T05:44:59.889Z,10.88
2022-11-16T05:45:59.991Z,10.84
2022-11-16T05:47:00.073Z,10.81
2022-11-16T05:48:00.193Z,10.76
2022-11-16T05:49:00.231Z,10.75
2022-11-16T05:50:00.335Z,10.69
2022-11-16T05:51:00.413Z,10.66
2022-11-16T05:52:00.519Z,10.62
2022-11-16T05:53:00.659Z,10.58
2022-11-16T05:54:00.814Z,10.55
2022-11-16T05:55:00.758Z,10.57
2022-11-16T05:56:00.941Z,10.52
2022-11-16T05:57:00.932Z,10.46
2022-11-16T05:58:01.035Z,10.46
2022-11-16T05:59:01.116Z,10.43
2022-11-16T06:00:01.182Z,10.43
2022-11-16T06:01:01.264Z,10.39
2022-11-16T06:02:01.349Z,10.39
2022-11-16T06:03:01.513Z,10.36
2022-11-16T06:04:01.515Z,10.34
2022-11-16T06:05:01.581Z,10.31
2022-11-16T06:06:01.690Z,10.32
2022-11-16T06:07:01.798Z,10.29
2022-11-16T06:08:01.882Z,10.29
2022-11-16T06:09:01.920Z,10.29
2022-11-16T06:10:02.028Z,10.22
2022-11-16T06:11:02.107Z,10.17
2022-11-16T06:12:02.205Z,10.16
2022-11-16T06:13:02.301Z,10.14
2022-11-16T06:14:02.377Z,10.10
2022-11-16T06:15:02.455Z,10.09
2022-11-16T06:16:02.566Z,10.09
2022-11-16T06:17:02.642Z,10.10
2022-11-16T06:18:02.763Z,10.25
2022-11-16T06:19:02.802Z,10.31
2022-11-16T06:20:02.912Z,10.34
2022-11-16T06:21:02.997Z,10.35
2022-11-16T06:22:03.096Z,10.38
2022-11-16T06:23:03.189Z,10.36
2022-11-16T06:24:03.280Z,10.34
2022-11-16T06:25:03.358Z,10.31
2022-11-16T06:26:03.455Z,10.31
2022-11-16T06:27:03.518Z,10.25
2022-11-16T06:28:07.655Z,10.22
2022-11-16T06:29:03.698Z,10.22
2022-11-16T06:30:03.780Z,10.17
2022-11-16T06:31:03.859Z,10.22
2022-11-16T06:32:03.935Z,10.20
2022-11-16T06:33:04.031Z,10.18
2022-11-16T06:34:04.093Z,10.16
2022-11-16T06:35:04.154Z,10.11
2022-11-16T06:36:04.258Z,10.09
2022-11-16T06:37:04.333Z,10.02
2022-11-16T06:38:04.456Z,9.98
2022-11-16T06:39:04.527Z,9.95
2022-11-16T06:40:04.621Z,9.93
2022-11-16T06:41:04.691Z,9.95
2022-11-16T06:42:04.773Z,10.06
2022-11-16T06:43:04.864Z,10.11
2022-11-16T06:44:04.938Z,10.17
2022-11-16T06:45:05.007Z,10.14
2022-11-16T06:46:05.091Z,10.18
2022-11-16T06:47:05.199Z,10.18
2022-11-16T06:48:05.301Z,10.14
2022-11-16T06:49:05.389Z,10.13
2022-11-16T06:50:05.477Z,10.10
2022-11-16T06:51:05.569Z,10.07
2022-11-16T06:52:05.637Z,10.04
2022-11-16T06:53:05.770Z,9.95
2022-11-16T06:54:05.803Z,9.92
2022-11-16T06:55:05.905Z,9.89
2022-11-16T06:56:05.989Z,9.86
2022-11-16T06:57:06.082Z,9.83
2022-11-16T06:58:06.171Z,9.81
2022-11-16T06:59:06.250Z,9.83
2022-11-16T07:00:06.324Z,9.81
2022-11-16T07:01:06.417Z,9.91
2022-11-16T07:02:06.517Z,9.92
2022-11-16T07:03:06.611Z,9.92
2022-11-16T07:04:06.641Z,9.89
2022-11-16T07:05:06.750Z,9.91
2022-11-16T07:06:06.818Z,9.91
2022-11-16T07:07:06.961Z,9.92
2022-11-16T07:08:06.978Z,9.91
2022-11-16T07:09:07.042Z,9.91
2022-11-16T07:10:07.113Z,9.88
2022-11-16T07:11:07.222Z,9.89
2022-11-16T07:12:07.285Z,9.85
2022-11-16T07:13:07.396Z,9.80
2022-11-16T07:14:07.463Z,9.80
2022-11-16T07:15:07.562Z,9.83
2022-11-16T07:16:07.639Z,9.78
2022-11-16T07:17:09.641Z,9.75
2022-11-16T07:18:07.826Z,9.74
2022-11-16T07:19:07.912Z,9.73
2022-11-16T07:20:08.011Z,9.68
2022-11-16T07:21:08.089Z,9.68
2022-11-16T07:22:08.154Z,9.67
2022-11-16T07:23:13.834Z,9.62
2022-11-16T07:24:08.327Z,9.63
2022-11-16T07:25:08.420Z,9.65
2022-11-16T07:26:08.486Z,9.73
2022-11-16T07:27:08.562Z,9.77
2022-11-16T07:28:08.644Z,9.78
2022-11-16T07:29:08.702Z,9.78
2022-11-16T07:30:08.788Z,9.78
2022-11-16T07:31:08.884Z,9.78
2022-11-16T07:32:08.955Z,9.80
2022-11-16T07:33:09.067Z,9.78
2022-11-16T07:34:09.133Z,9.81
2022-11-16T07:35:09.229Z,9.89
2022-11-16T07:36:09.287Z,9.98
2022-11-16T07:37:09.393Z,10.06
2022-11-16T07:38:12.102Z,10.13
2022-11-16T07:39:09.550Z,10.14
2022-11-16T07:40:09.626Z,10.16
2022-11-16T07:41:09.749Z,10.17
2022-11-16T07:42:09.806Z,10.18
2022-11-16T07:43:09.926Z,10.18
2022-11-16T07:44:12.212Z,10.18
2022-11-16T07:45:10.088Z,10.18
2022-11-16T07:47:10.252Z,10.22
2022-11-16T07:48:10.346Z,10.28
2022-11-16T07:49:11.616Z,10.25
2022-11-16T07:50:10.470Z,10.25
2022-11-16T07:51:10.542Z,10.26
2022-11-16T07:52:10.618Z,10.26
2022-11-16T07:53:10.716Z,10.28
2022-11-16T07:54:10.755Z,10.29
2022-11-16T07:55:10.840Z,10.31
2022-11-16T07:56:10.913Z,10.35
2022-11-16T07:57:11.021Z,10.39
2022-11-16T07:58:11.116Z,10.46
2022-11-16T07:59:11.186Z,10.52
2022-11-16T08:00:11.262Z,10.63
2022-11-16T08:01:11.334Z,10.66
2022-11-16T08:02:11.431Z,10.73
2022-11-16T08:03:11.533Z,10.78
2022-11-16T08:04:11.568Z,10.84
2022-11-16T08:05:11.677Z,10.90
2022-11-16T08:06:11.760Z,10.95
2022-11-16T08:07:11.914Z,10.94
2022-11-16T08:08:11.917Z,10.87
2022-11-16T08:09:11.969Z,10.84
2022-11-16T08:10:12.079Z,10.76
2022-11-16T08:11:12.143Z,10.73
2022-11-16T08:12:12.218Z,10.78
2022-11-16T08:13:12.340Z,10.80
2022-11-16T08:14:12.369Z,10.86
2022-11-16T08:15:12.437Z,10.88
2022-11-16T08:16:12.514Z,10.94
2022-11-16T08:17:12.602Z,10.98
2022-11-16T08:18:12.701Z,11.03
2022-11-16T08:19:12.754Z,11.03
2022-11-16T08:20:12.831Z,11.08
2022-11-16T08:21:12.905Z,11.16
2022-11-16T08:22:12.986Z,11.20
2022-11-16T08:23:13.088Z,11.23
2022-11-16T08:24:13.129Z,11.27
2022-11-16T08:25:13.219Z,11.33
2022-11-16T08:26:13.282Z,11.38
2022-11-16T08:27:13.367Z,11.38
2022-11-16T08:28:13.457Z,11.46
2022-11-16T08:29:13.562Z,11.78
2022-11-16T08:30:13.601Z,12.55
2022-11-16T08:31:13.741Z,13.59
2022-11-16T08:32:13.790Z,14.48
2022-11-16T08:33:13.909Z,15.30
2022-11-16T08:34:13.942Z,15.77
2022-11-16T08:35:14.039Z,16.50
2022-11-16T08:36:14.596Z,17.22
2022-11-16T08:37:14.204Z,17.89
2022-11-16T08:38:14.292Z,18.29
2022-11-16T08:39:14.359Z,18.23
2022-11-16T08:40:14.421Z,18.51
2022-11-16T08:41:14.523Z,18.87
2022-11-16T08:42:14.610Z,19.39
2022-11-16T08:43:14.703Z,19.38
2022-11-16T08:44:14.766Z,19.60
2022-11-16T08:45:14.853Z,19.85
2022-11-16T08:46:14.922Z,19.80
2022-11-16T08:47:15.007Z,19.71
2022-11-16T08:48:15.107Z,20.07
2022-11-16T08:49:15.173Z,20.23
2022-11-16T08:50:15.248Z,20.19
2022-11-16T08:51:18.492Z,20.50
2022-11-16T08:52:15.472Z,20.61
2022-11-16T08:53:15.550Z,20.54
2022-11-16T08:54:15.614Z,20.25
2022-11-16T08:55:15.704Z,19.67
2022-11-16T08:56:15.777Z,18.54
2022-11-16T08:57:15.879Z,17.73
2022-11-16T08:58:15.973Z,17.24
2022-11-16T08:59:16.062Z,17.36
2022-11-16T09:00:16.120Z,17.38
2022-11-16T09:01:16.309Z,17.51
2022-11-16T09:02:16.324Z,17.91
2022-11-16T09:03:16.381Z,18.46
2022-11-16T09:04:16.448Z,18.97
2022-11-16T09:05:16.528Z,19.24
2022-11-16T09:06:16.597Z,19.35
2022-11-16T09:07:16.754Z,19.16
2022-11-16T09:08:16.760Z,19.20
2022-11-16T09:09:16.841Z,19.79
2022-11-16T09:10:16.916Z,20.31
2022-11-16T09:11:17.016Z,20.64
2022-11-16T09:12:17.092Z,20.78
2022-11-16T09:13:17.211Z,21.00
2022-11-16T09:14:17.279Z,21.33
2022-11-16T09:15:17.379Z,21.64
2022-11-16T09:16:17.455Z,22.12
2022-11-16T09:17:21.868Z,22.08
2022-11-16T09:18:17.649Z,22.29
2022-11-16T09:19:17.718Z,22.66
2022-11-16T09:20:17.793Z,23.12
2022-11-16T09:21:17.897Z,23.50
2022-11-16T09:22:17.972Z,23.35
2022-11-16T09:23:23.765Z,23.00
2022-11-16T09:24:18.152Z,22.72
2022-11-16T09:25:18.217Z,22.67
2022-11-16T09:26:18.291Z,22.46
2022-11-16T09:27:18.392Z,22.57
2022-11-16T09:28:18.475Z,22.78
2022-11-16T09:29:18.542Z,22.41
2022-11-16T09:30:18.614Z,21.90
2022-11-16T09:31:23.167Z,21.71
2022-11-16T09:32:18.767Z,21.12
2022-11-16T09:33:18.884Z,21.09
2022-11-16T09:34:18.950Z,21.00
2022-11-16T09:35:19.042Z,21.05
2022-11-16T09:36:19.112Z,21.05
2022-11-16T09:37:19.202Z,21.48
2022-11-16T09:38:26.985Z,21.77
2022-11-16T09:39:31.086Z,20.87
2022-11-16T09:40:19.388Z,19.92
2022-11-16T09:41:19.457Z,19.45
2022-11-16T09:42:19.536Z,18.78
2022-11-16T09:43:19.628Z,18.54
2022-11-16T09:44:19.665Z,18.39
2022-11-16T09:45:19.753Z,18.44
2022-11-16T09:46:19.826Z,18.50
2022-11-16T09:47:19.944Z,19.21
2022-11-16T09:48:19.996Z,19.94
2022-11-16T09:49:20.080Z,20.26
2022-11-16T09:50:20.149Z,19.98
2022-11-16T09:51:20.253Z,19.70
2022-11-16T09:52:20.330Z,19.53
2022-11-16T09:53:20.463Z,19.07
2022-11-16T09:54:20.482Z,19.25
2022-11-16T09:55:20.582Z,19.49
2022-11-16T09:56:22.377Z,19.21
2022-11-16T09:57:20.738Z,18.79
2022-11-16T09:58:20.826Z,18.32
2022-11-16T09:59:20.891Z,18.41
2022-11-16T10:00:20.947Z,18.38
2022-11-16T10:01:21.136Z,18.60
2022-11-16T10:02:21.103Z,18.83
2022-11-16T10:03:21.209Z,18.68
2022-11-16T10:04:21.246Z,18.64
2022-11-16T10:05:21.337Z,18.31
2022-11-16T10:06:21.415Z,18.09
2022-11-16T10:07:21.545Z,17.96
2022-11-16T10:08:21.600Z,17.89
2022-11-16T10:09:21.671Z,17.99
2022-11-16T10:10:21.761Z,17.71
2022-11-16T10:11:21.860Z,17.35
2022-11-16T10:12:21.932Z,17.02
2022-11-16T10:13:22.045Z,16.88
2022-11-16T10:14:22.113Z,16.67
2022-11-16T10:15:22.215Z,16.47
2022-11-16T10:16:22.291Z,16.30
2022-11-16T10:17:22.393Z,16.16
2022-11-16T10:18:22.476Z,16.06
2022-11-16T10:19:22.562Z,16.03
2022-11-16T10:20:26.297Z,15.86
2022-11-16T10:21:22.717Z,15.77
2022-11-16T10:22:22.795Z,15.71
2022-11-16T10:23:22.897Z,15.73
2022-11-16T10:24:22.939Z,15.71
2022-11-16T10:25:23.013Z,15.66
2022-11-16T10:26:23.090Z,15.70
2022-11-16T10:27:23.179Z,15.68
2022-11-16T10:28:23.266Z,15.67
2022-11-16T10:29:23.339Z,15.70
2022-11-16T10:30:23.417Z,15.64
2022-11-16T10:31:23.508Z,15.66
2022-11-16T10:32:23.580Z,15.55
2022-11-16T10:33:23.717Z,15.53
2022-11-16T10:34:23.755Z,15.52
2022-11-16T10:35:23.853Z,15.52
2022-11-16T10:36:23.929Z,15.33
2022-11-16T10:37:24.002Z,15.28
2022-11-16T10:38:24.096Z,15.19
2022-11-16T10:39:24.137Z,15.23
2022-11-16T10:40:24.212Z,15.19
2022-11-16T10:41:24.289Z,15.04
2022-11-16T10:42:24.365Z,14.85
2022-11-16T10:43:24.468Z,14.82
2022-11-16T10:44:24.512Z,14.56
2022-11-16T10:45:24.587Z,14.53
2022-11-16T10:46:24.699Z,14.49
2022-11-16T10:47:27.110Z,14.52
2022-11-16T10:48:24.902Z,14.45
2022-11-16T10:49:24.944Z,14.46
2022-11-16T10:50:25.051Z,14.56
2022-11-16T10:51:25.127Z,14.64
2022-11-16T10:52:25.234Z,14.64
2022-11-16T10:53:25.304Z,14.69
2022-11-16T10:54:25.377Z,14.78
2022-11-16T10:55:25.457Z,14.74
2022-11-16T10:56:25.527Z,14.71
2022-11-16T10:57:25.602Z,14.78
2022-11-16T10:58:25.728Z,14.85
2022-11-16T10:59:25.767Z,14.90
2022-11-16T11:00:25.854Z,14.94
2022-11-16T11:01:25.951Z,14.90
2022-11-16T11:02:25.980Z,14.94
2022-11-16T11:03:26.076Z,14.59
2022-11-16T11:04:26.116Z,14.35
2022-11-16T11:05:26.187Z,14.41
2022-11-16T11:06:26.260Z,14.45
2022-11-16T11:07:26.513Z,14.59
2022-11-16T11:08:26.672Z,14.64
2022-11-16T11:09:26.503Z,14.63
2022-11-16T11:10:26.883Z,14.52
2022-11-16T11:11:26.667Z,14.44
2022-11-16T11:12:26.747Z,14.41
2022-11-16T11:13:26.844Z,14.41
2022-11-16T11:14:26.905Z,14.38
2022-11-16T11:15:27.359Z,14.31
2022-11-16T11:16:27.059Z,14.35
2022-11-16T11:17:27.132Z,14.44
2022-11-16T11:18:27.221Z,14.54
2022-11-16T11:19:27.297Z,14.64
2022-11-16T11:20:27.377Z,14.79
2022-11-16T11:21:27.453Z,14.90
2022-11-16T11:22:27.543Z,14.90
2022-11-16T11:23:27.623Z,14.95
2022-11-16T11:24:44.781Z,14.87
2022-11-16T11:25:27.766Z,14.39
2022-11-16T11:26:33.110Z,14.09
2022-11-16T11:27:27.927Z,14.19
2022-11-16T11:28:28.018Z,14.39
2022-11-16T11:29:28.087Z,14.48
2022-11-16T11:30:28.165Z,14.64
2022-11-16T11:31:28.235Z,14.78
2022-11-16T11:32:28.315Z,14.71
2022-11-16T11:33:28.414Z,14.69
2022-11-16T11:34:28.453Z,14.75
2022-11-16T11:35:28.563Z,14.82
2022-11-16T11:36:28.641Z,14.82
2022-11-16T11:37:28.736Z,14.90
2022-11-16T11:38:28.825Z,14.95
2022-11-16T11:39:28.962Z,15.05
2022-11-16T11:40:28.964Z,15.13
2022-11-16T11:41:29.058Z,15.19
2022-11-16T11:42:29.131Z,15.05
2022-11-16T11:43:29.232Z,14.85
2022-11-16T11:44:29.341Z,14.85
2022-11-16T11:45:29.343Z,14.94
2022-11-16T11:46:56.118Z,15.07
2022-11-16T11:47:56.112Z,15.05
2022-11-16T11:48:29.605Z,15.05
2022-11-16T11:49:33.624Z,14.98
2022-11-16T11:50:29.725Z,14.71
2022-11-16T11:51:29.795Z,14.39
2022-11-16T11:52:29.870Z,14.42
2022-11-16T11:53:29.965Z,14.38
2022-11-16T11:54:30.002Z,14.49
2022-11-16T11:55:30.074Z,14.45
2022-11-16T11:56:30.152Z,14.29
2022-11-16T11:57:30.244Z,14.42
2022-11-16T11:58:30.345Z,14.24
2022-11-16T11:59:30.420Z,14.12
2022-11-16T12:00:30.490Z,14.19
2022-11-16T12:01:30.578Z,14.26
2022-11-16T12:02:30.664Z,14.35
2022-11-16T12:03:31.017Z,14.44
2022-11-16T12:04:30.791Z,14.48
2022-11-16T12:05:30.884Z,14.52
2022-11-16T12:06:30.941Z,14.57
2022-11-16T12:07:31.036Z,14.66
2022-11-16T12:08:31.080Z,14.78
2022-11-16T12:09:31.147Z,14.83
2022-11-16T12:10:31.221Z,14.82
2022-11-16T12:11:31.310Z,14.83
2022-11-16T12:12:31.372Z,14.83
2022-11-16T12:13:31.636Z,14.87
2022-11-16T12:14:31.520Z,14.90
2022-11-16T12:15:31.604Z,14.93
2022-11-16T12:16:31.677Z,14.95
2022-11-16T12:17:31.790Z,15.01
2022-11-16T12:18:31.880Z,15.05
2022-11-16T12:19:31.942Z,15.07
2022-11-16T12:20:32.012Z,15.07
2022-11-16T12:21:32.078Z,15.12
2022-11-16T12:22:32.145Z,15.12
2022-11-16T12:23:32.678Z,15.12
2022-11-16T12:24:32.296Z,15.13
2022-11-16T12:25:32.412Z,15.16
2022-11-16T12:26:32.493Z,15.16
2022-11-16T12:27:32.560Z,15.16
2022-11-16T12:28:32.649Z,15.16
2022-11-16T12:29:32.714Z,15.19
2022-11-16T12:30:32.792Z,15.16
2022-11-16T12:31:32.873Z,15.19
2022-11-16T12:32:32.947Z,15.23
2022-11-16T12:33:33.458Z,15.28
2022-11-16T12:34:33.139Z,15.34
2022-11-16T12:35:33.239Z,15.38
2022-11-16T12:36:33.315Z,15.43
2022-11-16T12:37:33.427Z,15.43
2022-11-16T12:38:33.518Z,15.37
2022-11-16T12:39:33.586Z,15.35
2022-11-16T12:40:33.661Z,15.37
2022-11-16T12:41:33.746Z,15.37
2022-11-16T12:42:33.807Z,15.34
2022-11-16T12:43:34.240Z,15.33
2022-11-16T12:44:33.940Z,15.23
2022-11-16T12:45:34.025Z,15.16
2022-11-16T12:46:34.087Z,15.09
2022-11-16T12:47:34.163Z,15.00
2022-11-16T12:48:34.259Z,14.94
2022-11-16T12:49:34.321Z,14.90
2022-11-16T12:50:34.405Z,14.86
2022-11-16T12:51:34.492Z,14.75
2022-11-16T12:52:34.576Z,14.72
2022-11-16T12:53:35.125Z,14.67
2022-11-16T12:54:34.737Z,14.60
2022-11-16T12:55:34.805Z,14.57
2022-11-16T12:56:34.881Z,14.57